This is the latest recevied weather packets stored in our database for station/object F4JUT-10. If no packets are shown the sender has not sent any weather packets the latest 10 day(s).
| Time | Temp. | Humidity | Pressure | Rain* | Wind** | Luminosity | Snow |
|---|---|---|---|---|---|---|---|
| 1778005074 | 13.33° C | 73% | 1012.8 hPa | - | - | - | - |
| 1778004174 | 13.89° C | 72% | 1012.8 hPa | - | - | - | - |
| 1778003274 | 13.89° C | 72% | 1012.8 hPa | - | - | - | - |
| 1778002373 | 13.89° C | 72% | 1012.9 hPa | - | - | - | - |
| 1778001473 | 14.44° C | 72% | 1013 hPa | - | - | - | - |
| 1778000573 | 14.44° C | 73% | 1012.9 hPa | - | - | - | - |
| 1777999673 | 14.44° C | 73% | 1012.7 hPa | - | - | - | - |
| 1777998773 | 14.44° C | 74% | 1013.2 hPa | - | - | - | - |
| 1777997872 | 15° C | 73% | 1013.3 hPa | - | - | - | - |
| 1777996972 | 16.11° C | 70% | 1013.4 hPa | - | - | - | - |
| 1777996072 | 16.67° C | 68% | 1013.5 hPa | - | - | - | - |
| 1777995172 | 16.67° C | 69% | 1013.6 hPa | - | - | - | - |
| 1777994272 | 17.22° C | 67% | 1013.4 hPa | - | - | - | - |
| 1777993372 | 17.78° C | 61% | 1013.3 hPa | - | - | - | - |
| 1777992472 | 17.78° C | 63% | 1013.5 hPa | - | - | - | - |
| 1777991572 | 17.22° C | 63% | 1013.3 hPa | - | - | - | - |
| 1777990672 | 16.11° C | 67% | 1013.4 hPa | - | - | - | - |
| 1777989771 | 16.67° C | 73% | 1013.5 hPa | - | - | - | - |
| 1777988871 | 17.22° C | 71% | 1013 hPa | - | - | - | - |
| 1777987971 | 16.67° C | 73% | 1013.4 hPa | - | - | - | - |
| 1777987071 | 16.67° C | 75% | 1013.9 hPa | - | - | - | - |
| 1777986171 | 17.22° C | 75% | 1013.8 hPa | - | - | - | - |
| 1777985271 | 17.78° C | 76% | 1013.5 hPa | - | - | - | - |
| 1777984371 | 17.78° C | 75% | 1013.2 hPa | - | - | - | - |
| 1777983471 | 17.78° C | 76% | 1013.4 hPa | - | - | - | - |
* Rain since midnight (hover to see other rain measurements)
** Current wind speed in m/s (hover to see current wind gust speed)